sensor_id;sensor_type;location;lat;lon;timestamp;temperature;humidity
76168;DHT22;64927;48.214;16.378;2022-12-29T00:00:01;5.30;66.40
76168;DHT22;64927;48.214;16.378;2022-12-29T00:02:28;5.30;66.60
76168;DHT22;64927;48.214;16.378;2022-12-29T00:04:54;5.20;66.50
76168;DHT22;64927;48.214;16.378;2022-12-29T00:07:20;5.10;66.90
76168;DHT22;64927;48.214;16.378;2022-12-29T00:09:45;5.10;66.90
76168;DHT22;64927;48.214;16.378;2022-12-29T00:12:13;5.10;67.10
76168;DHT22;64927;48.214;16.378;2022-12-29T00:14:39;5.00;67.30
76168;DHT22;64927;48.214;16.378;2022-12-29T00:17:23;5.00;67.50
76168;DHT22;64927;48.214;16.378;2022-12-29T00:19:48;5.00;67.40
76168;DHT22;64927;48.214;16.378;2022-12-29T00:22:32;5.10;67.30
76168;DHT22;64927;48.214;16.378;2022-12-29T00:25:16;5.00;67.00
76168;DHT22;64927;48.214;16.378;2022-12-29T00:28:01;4.90;67.40
76168;DHT22;64927;48.214;16.378;2022-12-29T00:30:45;4.90;67.70
76168;DHT22;64927;48.214;16.378;2022-12-29T00:33:30;4.80;68.10
76168;DHT22;64927;48.214;16.378;2022-12-29T00:38:48;4.80;68.10
76168;DHT22;64927;48.214;16.378;2022-12-29T00:41:33;4.90;67.90
76168;DHT22;64927;48.214;16.378;2022-12-29T00:44:17;4.90;67.70
76168;DHT22;64927;48.214;16.378;2022-12-29T00:46:44;4.80;67.40
76168;DHT22;64927;48.214;16.378;2022-12-29T00:49:11;4.80;67.80
76168;DHT22;64927;48.214;16.378;2022-12-29T00:54:22;4.80;67.90
76168;DHT22;64927;48.214;16.378;2022-12-29T00:56:49;4.50;69.80
76168;DHT22;64927;48.214;16.378;2022-12-29T00:59:16;4.30;70.40
76168;DHT22;64927;48.214;16.378;2022-12-29T01:01:42;4.20;71.00
76168;DHT22;64927;48.214;16.378;2022-12-29T01:04:08;4.00;72.30
76168;DHT22;64927;48.214;16.378;2022-12-29T01:06:38;4.00;72.60
76168;DHT22;64927;48.214;16.378;2022-12-29T01:09:05;4.00;72.20
76168;DHT22;64927;48.214;16.378;2022-12-29T01:11:49;4.00;72.10
76168;DHT22;64927;48.214;16.378;2022-12-29T01:14:15;3.90;72.40
76168;DHT22;64927;48.214;16.378;2022-12-29T01:16:41;3.90;72.50
76168;DHT22;64927;48.214;16.378;2022-12-29T01:19:09;3.80;72.60
76168;DHT22;64927;48.214;16.378;2022-12-29T01:21:35;3.80;72.70
76168;DHT22;64927;48.214;16.378;2022-12-29T01:24:01;3.90;72.10
76168;DHT22;64927;48.214;16.378;2022-12-29T01:26:27;3.80;72.10
76168;DHT22;64927;48.214;16.378;2022-12-29T01:28:52;3.80;72.50
76168;DHT22;64927;48.214;16.378;2022-12-29T01:31:18;3.80;72.30
76168;DHT22;64927;48.214;16.378;2022-12-29T01:33:47;3.80;72.40
76168;DHT22;64927;48.214;16.378;2022-12-29T01:36:15;3.70;72.60
76168;DHT22;64927;48.214;16.378;2022-12-29T01:38:41;3.70;72.90
76168;DHT22;64927;48.214;16.378;2022-12-29T01:41:08;3.60;73.10
76168;DHT22;64927;48.214;16.378;2022-12-29T01:43:44;3.70;73.00
76168;DHT22;64927;48.214;16.378;2022-12-29T01:49:12;3.80;72.50
76168;DHT22;64927;48.214;16.378;2022-12-29T01:51:43;3.70;72.60
76168;DHT22;64927;48.214;16.378;2022-12-29T01:54:22;3.70;72.60
76168;DHT22;64927;48.214;16.378;2022-12-29T01:56:51;3.70;72.60
76168;DHT22;64927;48.214;16.378;2022-12-29T01:59:22;3.80;72.20
76168;DHT22;64927;48.214;16.378;2022-12-29T02:01:50;4.00;71.70
76168;DHT22;64927;48.214;16.378;2022-12-29T02:04:17;3.80;72.10
76168;DHT22;64927;48.214;16.378;2022-12-29T02:06:53;3.80;71.90
76168;DHT22;64927;48.214;16.378;2022-12-29T02:09:21;3.90;71.60
76168;DHT22;64927;48.214;16.378;2022-12-29T02:11:51;4.00;71.10
76168;DHT22;64927;48.214;16.378;2022-12-29T02:14:17;4.10;71.00
76168;DHT22;64927;48.214;16.378;2022-12-29T02:17:08;4.20;70.90
76168;DHT22;64927;48.214;16.378;2022-12-29T02:20:05;4.20;70.50
76168;DHT22;64927;48.214;16.378;2022-12-29T02:31:36;4.40;69.80
76168;DHT22;64927;48.214;16.378;2022-12-29T02:40:08;4.20;70.00
76168;DHT22;64927;48.214;16.378;2022-12-29T02:42:48;4.20;70.10
76168;DHT22;64927;48.214;16.378;2022-12-29T02:45:36;4.30;70.00
76168;DHT22;64927;48.214;16.378;2022-12-29T02:48:37;4.30;69.70
76168;DHT22;64927;48.214;16.378;2022-12-29T02:51:15;4.20;69.70
76168;DHT22;64927;48.214;16.378;2022-12-29T02:53:46;4.20;69.70
76168;DHT22;64927;48.214;16.378;2022-12-29T02:56:30;4.20;69.70
76168;DHT22;64927;48.214;16.378;2022-12-29T02:58:56;4.30;69.70
76168;DHT22;64927;48.214;16.378;2022-12-29T03:08:17;4.30;69.60
76168;DHT22;64927;48.214;16.378;2022-12-29T03:18:56;4.40;69.40
76168;DHT22;64927;48.214;16.378;2022-12-29T03:21:48;4.40;69.40
76168;DHT22;64927;48.214;16.378;2022-12-29T03:24:37;4.50;69.20
76168;DHT22;64927;48.214;16.378;2022-12-29T03:27:08;4.50;69.40
76168;DHT22;64927;48.214;16.378;2022-12-29T03:29:44;4.40;69.40
76168;DHT22;64927;48.214;16.378;2022-12-29T03:32:15;4.50;69.50
76168;DHT22;64927;48.214;16.378;2022-12-29T03:34:43;4.50;69.30
76168;DHT22;64927;48.214;16.378;2022-12-29T03:37:12;4.60;69.20
76168;DHT22;64927;48.214;16.378;2022-12-29T03:39:41;4.60;69.10
76168;DHT22;64927;48.214;16.378;2022-12-29T03:42:14;4.60;69.10
76168;DHT22;64927;48.214;16.378;2022-12-29T03:44:43;4.50;69.20
76168;DHT22;64927;48.214;16.378;2022-12-29T03:47:13;4.50;69.50
76168;DHT22;64927;48.214;16.378;2022-12-29T03:49:39;4.50;69.30
76168;DHT22;64927;48.214;16.378;2022-12-29T03:52:05;4.60;69.20
76168;DHT22;64927;48.214;16.378;2022-12-29T03:54:31;4.60;69.40
76168;DHT22;64927;48.214;16.378;2022-12-29T03:56:59;4.60;69.40
76168;DHT22;64927;48.214;16.378;2022-12-29T03:59:25;4.70;69.30
76168;DHT22;64927;48.214;16.378;2022-12-29T04:01:50;4.70;69.40
76168;DHT22;64927;48.214;16.378;2022-12-29T04:04:16;4.70;69.30
76168;DHT22;64927;48.214;16.378;2022-12-29T04:06:42;4.60;69.30
76168;DHT22;64927;48.214;16.378;2022-12-29T04:09:09;4.60;69.50
76168;DHT22;64927;48.214;16.378;2022-12-29T04:11:38;4.60;69.50
76168;DHT22;64927;48.214;16.378;2022-12-29T04:14:04;4.50;69.60
76168;DHT22;64927;48.214;16.378;2022-12-29T04:16:29;4.60;69.70
76168;DHT22;64927;48.214;16.378;2022-12-29T04:19:03;4.50;69.90
76168;DHT22;64927;48.214;16.378;2022-12-29T04:21:29;4.40;70.20
76168;DHT22;64927;48.214;16.378;2022-12-29T04:23:57;4.40;70.40
76168;DHT22;64927;48.214;16.378;2022-12-29T04:26:23;4.40;70.20
76168;DHT22;64927;48.214;16.378;2022-12-29T04:28:50;4.40;70.30
76168;DHT22;64927;48.214;16.378;2022-12-29T04:31:16;4.40;70.20
76168;DHT22;64927;48.214;16.378;2022-12-29T04:33:44;4.40;70.20
76168;DHT22;64927;48.214;16.378;2022-12-29T04:36:10;4.50;70.20
76168;DHT22;64927;48.214;16.378;2022-12-29T04:38:35;4.40;70.20
76168;DHT22;64927;48.214;16.378;2022-12-29T04:41:01;4.40;70.10
76168;DHT22;64927;48.214;16.378;2022-12-29T04:43:28;4.40;70.30
76168;DHT22;64927;48.214;16.378;2022-12-29T04:45:54;4.30;70.50
76168;DHT22;64927;48.214;16.378;2022-12-29T04:48:19;4.30;70.80
76168;DHT22;64927;48.214;16.378;2022-12-29T04:50:47;4.30;70.80
76168;DHT22;64927;48.214;16.378;2022-12-29T04:53:14;4.30;70.80
76168;DHT22;64927;48.214;16.378;2022-12-29T04:55:42;4.30;70.80
76168;DHT22;64927;48.214;16.378;2022-12-29T04:58:07;4.30;70.80
76168;DHT22;64927;48.214;16.378;2022-12-29T05:00:35;4.30;70.90
76168;DHT22;64927;48.214;16.378;2022-12-29T05:03:01;4.20;71.00
76168;DHT22;64927;48.214;16.378;2022-12-29T05:05:27;4.10;71.20
76168;DHT22;64927;48.214;16.378;2022-12-29T05:07:52;4.10;71.50
76168;DHT22;64927;48.214;16.378;2022-12-29T05:10:18;4.10;71.60
76168;DHT22;64927;48.214;16.378;2022-12-29T05:12:44;4.10;71.50
76168;DHT22;64927;48.214;16.378;2022-12-29T05:15:10;4.10;71.50
76168;DHT22;64927;48.214;16.378;2022-12-29T05:17:37;4.10;71.40
76168;DHT22;64927;48.214;16.378;2022-12-29T05:20:04;4.10;71.60
76168;DHT22;64927;48.214;16.378;2022-12-29T05:22:32;4.00;71.60
76168;DHT22;64927;48.214;16.378;2022-12-29T05:24:58;4.00;71.60
76168;DHT22;64927;48.214;16.378;2022-12-29T05:27:24;4.00;71.70
76168;DHT22;64927;48.214;16.378;2022-12-29T05:29:52;3.90;72.40
76168;DHT22;64927;48.214;16.378;2022-12-29T05:32:17;3.80;72.30
76168;DHT22;64927;48.214;16.378;2022-12-29T05:34:43;3.70;72.50
76168;DHT22;64927;48.214;16.378;2022-12-29T05:37:09;3.70;72.60
76168;DHT22;64927;48.214;16.378;2022-12-29T05:39:34;3.60;72.70
76168;DHT22;64927;48.214;16.378;2022-12-29T05:42:02;3.60;72.70
76168;DHT22;64927;48.214;16.378;2022-12-29T05:44:28;3.60;72.80
76168;DHT22;64927;48.214;16.378;2022-12-29T05:46:56;3.70;72.80
76168;DHT22;64927;48.214;16.378;2022-12-29T05:49:24;3.70;72.60
76168;DHT22;64927;48.214;16.378;2022-12-29T05:51:50;3.60;72.70
76168;DHT22;64927;48.214;16.378;2022-12-29T05:54:16;3.60;72.80
76168;DHT22;64927;48.214;16.378;2022-12-29T05:56:42;3.60;72.60
76168;DHT22;64927;48.214;16.378;2022-12-29T05:59:07;3.60;72.60
76168;DHT22;64927;48.214;16.378;2022-12-29T06:01:33;3.60;72.30
76168;DHT22;64927;48.214;16.378;2022-12-29T06:04:00;3.60;72.30
76168;DHT22;64927;48.214;16.378;2022-12-29T06:06:25;3.50;72.70
76168;DHT22;64927;48.214;16.378;2022-12-29T06:08:51;3.50;72.70
76168;DHT22;64927;48.214;16.378;2022-12-29T06:11:17;3.50;72.90
76168;DHT22;64927;48.214;16.378;2022-12-29T06:13:42;3.50;72.90
76168;DHT22;64927;48.214;16.378;2022-12-29T06:16:10;3.60;72.60
76168;DHT22;64927;48.214;16.378;2022-12-29T06:18:36;3.60;72.20
76168;DHT22;64927;48.214;16.378;2022-12-29T06:21:03;3.40;72.40
76168;DHT22;64927;48.214;16.378;2022-12-29T06:23:29;3.40;72.90
76168;DHT22;64927;48.214;16.378;2022-12-29T06:25:54;3.30;73.30
76168;DHT22;64927;48.214;16.378;2022-12-29T06:28:20;3.20;73.70
76168;DHT22;64927;48.214;16.378;2022-12-29T06:30:46;3.20;74.00
76168;DHT22;64927;48.214;16.378;2022-12-29T06:33:12;3.30;74.00
76168;DHT22;64927;48.214;16.378;2022-12-29T06:35:38;3.30;74.00
76168;DHT22;64927;48.214;16.378;2022-12-29T06:38:03;3.30;74.20
76168;DHT22;64927;48.214;16.378;2022-12-29T06:40:29;3.40;74.20
76168;DHT22;64927;48.214;16.378;2022-12-29T06:42:57;3.40;74.30
76168;DHT22;64927;48.214;16.378;2022-12-29T06:45:23;3.40;74.60
76168;DHT22;64927;48.214;16.378;2022-12-29T06:47:49;3.50;74.40
76168;DHT22;64927;48.214;16.378;2022-12-29T06:50:15;3.60;74.40
76168;DHT22;64927;48.214;16.378;2022-12-29T06:52:41;3.70;74.50
76168;DHT22;64927;48.214;16.378;2022-12-29T06:55:09;3.80;73.90
76168;DHT22;64927;48.214;16.378;2022-12-29T06:57:38;3.90;73.90
76168;DHT22;64927;48.214;16.378;2022-12-29T07:00:04;4.00;73.60
76168;DHT22;64927;48.214;16.378;2022-12-29T07:02:30;4.10;73.50
76168;DHT22;64927;48.214;16.378;2022-12-29T07:04:58;4.10;73.70
76168;DHT22;64927;48.214;16.378;2022-12-29T07:07:26;4.20;73.80
76168;DHT22;64927;48.214;16.378;2022-12-29T07:09:54;4.30;73.70
76168;DHT22;64927;48.214;16.378;2022-12-29T07:12:20;4.30;73.40
76168;DHT22;64927;48.214;16.378;2022-12-29T07:14:45;4.40;73.50
76168;DHT22;64927;48.214;16.378;2022-12-29T07:17:11;4.50;73.40
76168;DHT22;64927;48.214;16.378;2022-12-29T07:19:40;4.40;73.30
76168;DHT22;64927;48.214;16.378;2022-12-29T07:22:05;4.50;73.50
76168;DHT22;64927;48.214;16.378;2022-12-29T07:24:31;4.40;73.60
76168;DHT22;64927;48.214;16.378;2022-12-29T07:26:57;4.40;73.80
76168;DHT22;64927;48.214;16.378;2022-12-29T07:29:22;4.40;73.90
76168;DHT22;64927;48.214;16.378;2022-12-29T07:31:48;4.50;73.90
76168;DHT22;64927;48.214;16.378;2022-12-29T07:34:14;4.60;73.90
76168;DHT22;64927;48.214;16.378;2022-12-29T07:36:41;4.60;73.60
76168;DHT22;64927;48.214;16.378;2022-12-29T07:39:09;4.60;73.20
76168;DHT22;64927;48.214;16.378;2022-12-29T07:41:36;4.60;73.50
76168;DHT22;64927;48.214;16.378;2022-12-29T07:44:02;4.60;73.50
76168;DHT22;64927;48.214;16.378;2022-12-29T07:46:31;4.60;73.70
76168;DHT22;64927;48.214;16.378;2022-12-29T07:48:56;4.70;73.30
76168;DHT22;64927;48.214;16.378;2022-12-29T07:51:22;4.70;73.20
76168;DHT22;64927;48.214;16.378;2022-12-29T07:53:48;4.60;73.30
76168;DHT22;64927;48.214;16.378;2022-12-29T07:56:13;4.70;73.40
76168;DHT22;64927;48.214;16.378;2022-12-29T07:58:39;4.70;73.00
76168;DHT22;64927;48.214;16.378;2022-12-29T08:01:05;4.70;73.10
76168;DHT22;64927;48.214;16.378;2022-12-29T08:03:32;4.60;72.90
76168;DHT22;64927;48.214;16.378;2022-12-29T08:05:58;4.70;72.60
76168;DHT22;64927;48.214;16.378;2022-12-29T08:08:24;4.70;72.50
76168;DHT22;64927;48.214;16.378;2022-12-29T08:10:49;4.70;72.80
76168;DHT22;64927;48.214;16.378;2022-12-29T08:13:17;4.60;72.90
76168;DHT22;64927;48.214;16.378;2022-12-29T08:15:45;4.60;73.00
76168;DHT22;64927;48.214;16.378;2022-12-29T08:18:13;4.50;73.20
76168;DHT22;64927;48.214;16.378;2022-12-29T08:20:39;4.50;73.20
76168;DHT22;64927;48.214;16.378;2022-12-29T08:23:04;4.40;73.20
76168;DHT22;64927;48.214;16.378;2022-12-29T08:25:30;4.40;73.20
76168;DHT22;64927;48.214;16.378;2022-12-29T08:27:56;4.30;73.50
76168;DHT22;64927;48.214;16.378;2022-12-29T08:30:22;4.30;73.50
76168;DHT22;64927;48.214;16.378;2022-12-29T08:32:49;4.20;73.70
76168;DHT22;64927;48.214;16.378;2022-12-29T08:35:17;4.10;73.90
76168;DHT22;64927;48.214;16.378;2022-12-29T08:37:43;4.30;74.10
76168;DHT22;64927;48.214;16.378;2022-12-29T08:40:09;4.40;73.40
76168;DHT22;64927;48.214;16.378;2022-12-29T08:42:34;4.30;72.90
76168;DHT22;64927;48.214;16.378;2022-12-29T08:45:01;4.30;73.50
76168;DHT22;64927;48.214;16.378;2022-12-29T08:47:29;4.20;73.50
76168;DHT22;64927;48.214;16.378;2022-12-29T08:49:54;4.20;73.60
76168;DHT22;64927;48.214;16.378;2022-12-29T08:52:22;4.20;73.80
76168;DHT22;64927;48.214;16.378;2022-12-29T08:54:52;4.20;73.70
76168;DHT22;64927;48.214;16.378;2022-12-29T08:57:18;4.10;73.90
76168;DHT22;64927;48.214;16.378;2022-12-29T08:59:46;4.20;74.10
76168;DHT22;64927;48.214;16.378;2022-12-29T09:02:14;4.30;73.80
76168;DHT22;64927;48.214;16.378;2022-12-29T09:04:42;4.30;73.60
76168;DHT22;64927;48.214;16.378;2022-12-29T09:07:08;4.20;74.00
76168;DHT22;64927;48.214;16.378;2022-12-29T09:09:33;4.40;73.90
76168;DHT22;64927;48.214;16.378;2022-12-29T09:11:59;4.40;73.60
76168;DHT22;64927;48.214;16.378;2022-12-29T09:14:25;4.30;74.00
76168;DHT22;64927;48.214;16.378;2022-12-29T09:16:51;4.30;74.20
76168;DHT22;64927;48.214;16.378;2022-12-29T09:19:36;4.30;74.00
76168;DHT22;64927;48.214;16.378;2022-12-29T09:22:02;4.30;74.20
76168;DHT22;64927;48.214;16.378;2022-12-29T09:24:30;4.20;73.90
76168;DHT22;64927;48.214;16.378;2022-12-29T09:26:56;4.20;74.10
76168;DHT22;64927;48.214;16.378;2022-12-29T09:29:27;4.40;73.90
76168;DHT22;64927;48.214;16.378;2022-12-29T09:31:52;4.40;73.30
76168;DHT22;64927;48.214;16.378;2022-12-29T09:34:18;4.40;73.10
76168;DHT22;64927;48.214;16.378;2022-12-29T09:36:46;4.30;73.00
76168;DHT22;64927;48.214;16.378;2022-12-29T09:39:12;4.30;73.00
76168;DHT22;64927;48.214;16.378;2022-12-29T09:42:08;4.20;72.90
76168;DHT22;64927;48.214;16.378;2022-12-29T09:47:17;4.10;72.50
76168;DHT22;64927;48.214;16.378;2022-12-29T09:49:49;4.10;73.30
76168;DHT22;64927;48.214;16.378;2022-12-29T09:52:22;4.20;73.40
76168;DHT22;64927;48.214;16.378;2022-12-29T09:57:38;4.10;72.70
76168;DHT22;64927;48.214;16.378;2022-12-29T10:00:19;4.10;73.00
76168;DHT22;64927;48.214;16.378;2022-12-29T10:02:49;4.10;73.60
76168;DHT22;64927;48.214;16.378;2022-12-29T10:05:38;4.10;74.20
76168;DHT22;64927;48.214;16.378;2022-12-29T10:10:56;4.30;74.00
76168;DHT22;64927;48.214;16.378;2022-12-29T10:16:09;4.20;73.80
76168;DHT22;64927;48.214;16.378;2022-12-29T10:24:13;4.50;73.60
76168;DHT22;64927;48.214;16.378;2022-12-29T10:26:43;4.60;73.50
76168;DHT22;64927;48.214;16.378;2022-12-29T10:29:16;4.60;73.00
76168;DHT22;64927;48.214;16.378;2022-12-29T10:31:54;4.60;72.80
76168;DHT22;64927;48.214;16.378;2022-12-29T10:34:33;4.50;73.40
76168;DHT22;64927;48.214;16.378;2022-12-29T10:40:24;4.70;73.20
76168;DHT22;64927;48.214;16.378;2022-12-29T10:42:55;4.60;73.70
76168;DHT22;64927;48.214;16.378;2022-12-29T10:45:30;4.70;73.80
76168;DHT22;64927;48.214;16.378;2022-12-29T10:48:03;4.70;73.70
76168;DHT22;64927;48.214;16.378;2022-12-29T10:50:34;4.70;73.40
76168;DHT22;64927;48.214;16.378;2022-12-29T10:53:15;4.80;73.30
76168;DHT22;64927;48.214;16.378;2022-12-29T10:55:43;4.80;73.10
76168;DHT22;64927;48.214;16.378;2022-12-29T10:58:12;4.90;72.70
76168;DHT22;64927;48.214;16.378;2022-12-29T11:00:39;4.70;72.90
76168;DHT22;64927;48.214;16.378;2022-12-29T11:03:11;4.70;72.90
76168;DHT22;64927;48.214;16.378;2022-12-29T11:08:20;4.80;73.20
76168;DHT22;64927;48.214;16.378;2022-12-29T11:11:00;4.90;73.00
76168;DHT22;64927;48.214;16.378;2022-12-29T11:13:29;4.90;72.80
76168;DHT22;64927;48.214;16.378;2022-12-29T11:15:55;5.00;73.20
76168;DHT22;64927;48.214;16.378;2022-12-29T11:18:47;5.20;72.50
76168;DHT22;64927;48.214;16.378;2022-12-29T11:21:36;5.10;72.50
76168;DHT22;64927;48.214;16.378;2022-12-29T11:24:26;5.20;72.60
76168;DHT22;64927;48.214;16.378;2022-12-29T11:27:10;5.30;72.10
76168;DHT22;64927;48.214;16.378;2022-12-29T11:29:41;5.30;71.90
76168;DHT22;64927;48.214;16.378;2022-12-29T11:32:28;5.10;72.10
76168;DHT22;64927;48.214;16.378;2022-12-29T11:34:56;5.00;72.80
76168;DHT22;64927;48.214;16.378;2022-12-29T11:37:31;4.90;73.20
76168;DHT22;64927;48.214;16.378;2022-12-29T11:40:06;5.00;73.20
76168;DHT22;64927;48.214;16.378;2022-12-29T11:43:02;5.20;73.30
76168;DHT22;64927;48.214;16.378;2022-12-29T11:45:33;5.20;73.10
76168;DHT22;64927;48.214;16.378;2022-12-29T11:48:09;5.30;72.60
76168;DHT22;64927;48.214;16.378;2022-12-29T11:50:40;5.30;72.00
76168;DHT22;64927;48.214;16.378;2022-12-29T11:53:24;5.40;71.90
76168;DHT22;64927;48.214;16.378;2022-12-29T11:56:05;5.30;72.00
76168;DHT22;64927;48.214;16.378;2022-12-29T11:58:36;5.30;71.90
76168;DHT22;64927;48.214;16.378;2022-12-29T12:01:23;5.30;72.10
76168;DHT22;64927;48.214;16.378;2022-12-29T12:04:01;5.30;71.90
76168;DHT22;64927;48.214;16.378;2022-12-29T12:06:28;5.40;71.90
76168;DHT22;64927;48.214;16.378;2022-12-29T12:09:18;5.40;71.90
76168;DHT22;64927;48.214;16.378;2022-12-29T12:11:52;5.50;72.90
76168;DHT22;64927;48.214;16.378;2022-12-29T12:14:34;5.50;71.50
76168;DHT22;64927;48.214;16.378;2022-12-29T12:17:05;5.50;71.70
76168;DHT22;64927;48.214;16.378;2022-12-29T12:22:39;5.50;71.90
76168;DHT22;64927;48.214;16.378;2022-12-29T12:25:14;5.60;71.60
76168;DHT22;64927;48.214;16.378;2022-12-29T12:27:59;5.70;71.00
76168;DHT22;64927;48.214;16.378;2022-12-29T12:30:30;5.70;70.90
76168;DHT22;64927;48.214;16.378;2022-12-29T12:33:05;5.70;71.00
76168;DHT22;64927;48.214;16.378;2022-12-29T12:41:08;5.90;70.90
76168;DHT22;64927;48.214;16.378;2022-12-29T12:43:37;6.00;70.30
76168;DHT22;64927;48.214;16.378;2022-12-29T13:00:09;6.40;69.50
76168;DHT22;64927;48.214;16.378;2022-12-29T13:10:42;6.50;69.10
76168;DHT22;64927;48.214;16.378;2022-12-29T13:15:53;6.70;68.70
76168;DHT22;64927;48.214;16.378;2022-12-29T13:18:46;6.70;69.20
76168;DHT22;64927;48.214;16.378;2022-12-29T13:26:38;6.50;68.60
76168;DHT22;64927;48.214;16.378;2022-12-29T13:31:52;6.40;69.50
76168;DHT22;64927;48.214;16.378;2022-12-29T13:37:55;6.40;70.40
76168;DHT22;64927;48.214;16.378;2022-12-29T13:40:27;6.40;69.60
76168;DHT22;64927;48.214;16.378;2022-12-29T13:42:57;6.40;69.70
76168;DHT22;64927;48.214;16.378;2022-12-29T13:45:25;6.30;69.70
76168;DHT22;64927;48.214;16.378;2022-12-29T13:48:10;6.30;69.80
76168;DHT22;64927;48.214;16.378;2022-12-29T13:50:38;6.20;70.10
76168;DHT22;64927;48.214;16.378;2022-12-29T13:53:23;6.20;70.20
76168;DHT22;64927;48.214;16.378;2022-12-29T13:56:07;6.20;70.50
76168;DHT22;64927;48.214;16.378;2022-12-29T14:01:37;6.20;70.00
76168;DHT22;64927;48.214;16.378;2022-12-29T14:04:25;6.00;70.60
76168;DHT22;64927;48.214;16.378;2022-12-29T14:07:17;5.90;70.90
76168;DHT22;64927;48.214;16.378;2022-12-29T14:09:47;5.90;71.20
76168;DHT22;64927;48.214;16.378;2022-12-29T14:15:05;5.80;71.30
76168;DHT22;64927;48.214;16.378;2022-12-29T14:17:35;5.80;71.70
76168;DHT22;64927;48.214;16.378;2022-12-29T14:20:02;5.70;71.70
76168;DHT22;64927;48.214;16.378;2022-12-29T14:22:30;5.60;71.90
76168;DHT22;64927;48.214;16.378;2022-12-29T14:24:58;5.60;72.10
76168;DHT22;64927;48.214;16.378;2022-12-29T14:29:55;5.60;72.30
76168;DHT22;64927;48.214;16.378;2022-12-29T14:34:57;5.60;72.70
76168;DHT22;64927;48.214;16.378;2022-12-29T14:37:31;5.50;73.00
76168;DHT22;64927;48.214;16.378;2022-12-29T14:40:29;5.40;73.20
76168;DHT22;64927;48.214;16.378;2022-12-29T14:42:56;5.50;73.20
76168;DHT22;64927;48.214;16.378;2022-12-29T14:47:51;5.50;73.20
76168;DHT22;64927;48.214;16.378;2022-12-29T14:53:03;5.60;73.10
76168;DHT22;64927;48.214;16.378;2022-12-29T14:55:43;5.50;74.00
76168;DHT22;64927;48.214;16.378;2022-12-29T14:58:18;5.40;73.40
76168;DHT22;64927;48.214;16.378;2022-12-29T15:00:49;5.40;73.50
76168;DHT22;64927;48.214;16.378;2022-12-29T15:03:24;5.50;73.30
76168;DHT22;64927;48.214;16.378;2022-12-29T15:05:56;5.40;73.50
76168;DHT22;64927;48.214;16.378;2022-12-29T15:08:33;5.40;73.60
76168;DHT22;64927;48.214;16.378;2022-12-29T15:11:04;5.40;73.70
76168;DHT22;64927;48.214;16.378;2022-12-29T15:13:37;5.40;73.70
76168;DHT22;64927;48.214;16.378;2022-12-29T15:18:45;5.40;73.60
76168;DHT22;64927;48.214;16.378;2022-12-29T15:21:13;5.40;73.60
76168;DHT22;64927;48.214;16.378;2022-12-29T15:23:42;5.40;73.60
76168;DHT22;64927;48.214;16.378;2022-12-29T15:26:09;5.40;73.70
76168;DHT22;64927;48.214;16.378;2022-12-29T15:28:42;5.40;73.70
76168;DHT22;64927;48.214;16.378;2022-12-29T15:31:25;5.50;73.60
76168;DHT22;64927;48.214;16.378;2022-12-29T15:33:53;5.50;73.40
76168;DHT22;64927;48.214;16.378;2022-12-29T15:36:27;5.50;73.20
76168;DHT22;64927;48.214;16.378;2022-12-29T15:38:57;5.30;74.10
76168;DHT22;64927;48.214;16.378;2022-12-29T15:41:46;5.30;74.20
76168;DHT22;64927;48.214;16.378;2022-12-29T15:44:42;5.30;74.20
76168;DHT22;64927;48.214;16.378;2022-12-29T15:47:26;5.30;74.50
76168;DHT22;64927;48.214;16.378;2022-12-29T15:50:04;5.30;74.20
76168;DHT22;64927;48.214;16.378;2022-12-29T15:52:32;5.40;74.10
76168;DHT22;64927;48.214;16.378;2022-12-29T15:55:01;5.30;74.20
76168;DHT22;64927;48.214;16.378;2022-12-29T15:57:41;5.20;74.50
76168;DHT22;64927;48.214;16.378;2022-12-29T16:00:37;5.30;74.30
76168;DHT22;64927;48.214;16.378;2022-12-29T16:03:06;5.30;74.20
76168;DHT22;64927;48.214;16.378;2022-12-29T16:05:38;5.20;74.60
76168;DHT22;64927;48.214;16.378;2022-12-29T16:08:31;5.20;74.70
76168;DHT22;64927;48.214;16.378;2022-12-29T16:11:02;5.20;74.80
76168;DHT22;64927;48.214;16.378;2022-12-29T16:13:34;5.20;74.70
76168;DHT22;64927;48.214;16.378;2022-12-29T16:16:09;5.20;74.60
76168;DHT22;64927;48.214;16.378;2022-12-29T16:18:38;5.30;74.40
76168;DHT22;64927;48.214;16.378;2022-12-29T16:21:06;5.30;74.30
76168;DHT22;64927;48.214;16.378;2022-12-29T16:23:40;5.30;74.30
76168;DHT22;64927;48.214;16.378;2022-12-29T16:26:16;5.30;74.40
76168;DHT22;64927;48.214;16.378;2022-12-29T16:28:44;5.30;74.40
76168;DHT22;64927;48.214;16.378;2022-12-29T16:31:28;5.30;74.50
76168;DHT22;64927;48.214;16.378;2022-12-29T16:33:58;5.40;74.50
76168;DHT22;64927;48.214;16.378;2022-12-29T16:36:51;5.40;74.40
76168;DHT22;64927;48.214;16.378;2022-12-29T16:39:36;5.50;74.20
76168;DHT22;64927;48.214;16.378;2022-12-29T16:48:20;5.60;73.70
76168;DHT22;64927;48.214;16.378;2022-12-29T16:50:47;5.50;73.00
76168;DHT22;64927;48.214;16.378;2022-12-29T16:53:39;5.60;73.00
76168;DHT22;64927;48.214;16.378;2022-12-29T16:56:15;5.60;72.80
76168;DHT22;64927;48.214;16.378;2022-12-29T16:58:46;5.60;72.70
76168;DHT22;64927;48.214;16.378;2022-12-29T17:01:12;5.50;72.40
76168;DHT22;64927;48.214;16.378;2022-12-29T17:03:50;5.50;72.50
76168;DHT22;64927;48.214;16.378;2022-12-29T17:06:18;5.50;72.40
76168;DHT22;64927;48.214;16.378;2022-12-29T17:08:45;5.60;72.20
76168;DHT22;64927;48.214;16.378;2022-12-29T17:11:31;5.60;72.10
76168;DHT22;64927;48.214;16.378;2022-12-29T17:14:30;5.60;71.80
76168;DHT22;64927;48.214;16.378;2022-12-29T17:16:57;5.60;71.50
76168;DHT22;64927;48.214;16.378;2022-12-29T17:19:33;5.60;71.60
76168;DHT22;64927;48.214;16.378;2022-12-29T17:21:59;5.60;71.40
76168;DHT22;64927;48.214;16.378;2022-12-29T17:24:28;5.60;71.30
76168;DHT22;64927;48.214;16.378;2022-12-29T17:26:58;5.60;71.40
76168;DHT22;64927;48.214;16.378;2022-12-29T17:29:33;5.60;71.40
76168;DHT22;64927;48.214;16.378;2022-12-29T17:32:02;5.70;71.30
76168;DHT22;64927;48.214;16.378;2022-12-29T17:34:29;5.70;71.40
76168;DHT22;64927;48.214;16.378;2022-12-29T17:36:54;5.70;71.10
76168;DHT22;64927;48.214;16.378;2022-12-29T17:39:23;5.70;71.20
76168;DHT22;64927;48.214;16.378;2022-12-29T17:41:48;5.70;71.30
76168;DHT22;64927;48.214;16.378;2022-12-29T17:44:19;5.70;71.30
76168;DHT22;64927;48.214;16.378;2022-12-29T17:46:46;5.60;71.10
76168;DHT22;64927;48.214;16.378;2022-12-29T17:49:14;5.70;71.00
76168;DHT22;64927;48.214;16.378;2022-12-29T17:51:45;5.70;71.00
76168;DHT22;64927;48.214;16.378;2022-12-29T17:54:31;5.80;70.90
76168;DHT22;64927;48.214;16.378;2022-12-29T17:56:57;5.80;70.90
76168;DHT22;64927;48.214;16.378;2022-12-29T17:59:23;5.80;70.90
76168;DHT22;64927;48.214;16.378;2022-12-29T18:01:48;5.90;70.60
76168;DHT22;64927;48.214;16.378;2022-12-29T18:04:16;5.90;70.50